Time;durP1;ratioP1;P1;durP2;ratioP2;P2;SDS_P1;SDS_P2;PMS_P1;PMS_P2;Temp;Humidity;BMP_temperature;BMP_pressure;BME280_temperature;BME280_humidity;BME280_pressure;Samples;Min_cycle;Max_cycle;Signal;HPM_P1;HPM_P2
2021/12/16 00:02:37;;;;;;;6.68;4.10;;;;;;;;;;5093552;28;20541;-54
2021/12/16 00:05:24;;;;;;;8.35;4.38;;;;;;;;;;5081672;28;20083;-55
2021/12/16 00:07:59;;;;;;;8.35;3.92;;;;;;;;;;5072825;28;20530;-54
2021/12/16 00:10:32;;;;;;;6.50;4.47;;;;;;;;;;5073349;28;20060;-55
2021/12/16 00:32:18;;;;;;;11.02;5.03;;;;;;;;;;5072929;28;20063;-56
2021/12/16 00:34:43;;;;;;;10.25;5.32;;;;;;;;;;5072700;28;20012;-52
2021/12/16 00:37:08;;;;;;;9.68;4.55;;;;;;;;;;5072705;28;20166;-57
2021/12/16 00:39:36;;;;;;;7.72;4.47;;;;;;;;;;5072532;28;20031;-55
2021/12/16 00:42:07;;;;;;;6.88;4.32;;;;;;;;;;5072530;28;20033;-54
2021/12/16 00:47:12;;;;;;;8.77;5.10;;;;;;;;;;5092559;28;20064;-55
2021/12/16 00:49:44;;;;;;;8.73;4.75;;;;;;;;;;5093270;28;20012;-55
2021/12/16 00:55:13;;;;;;;12.20;4.63;;;;;;;;;;5092496;28;20549;-55
2021/12/16 00:57:41;;;;;;;7.93;4.93;;;;;;;;;;5094633;28;20169;-54
2021/12/16 01:00:10;;;;;;;10.80;4.85;;;;;;;;;;5096613;28;20388;-55
2021/12/16 01:03:04;;;;;;;8.98;4.78;;;;;;;;;;5096622;28;20115;-54
2021/12/16 01:38:09;;;;;;;13.30;6.47;;;;;;;;;;5013600;28;20136;-55
2021/12/16 01:51:34;;;;;;;8.85;6.35;;;;;;;;;;5033548;28;20076;-55
2021/12/16 01:57:17;;;;;;;9.82;6.57;;;;;;;;;;5075097;28;20068;-55
2021/12/16 01:59:46;;;;;;;13.88;6.57;;;;;;;;;;5075355;28;20029;-55
2021/12/16 02:08:18;;;;;;;9.98;5.90;;;;;;;;;;5032634;28;20120;-54
2021/12/16 02:10:41;;;;;;;10.90;6.90;;;;;;;;;;5031876;28;20464;-55
2021/12/16 02:32:33;;;;;;;9.50;5.82;;;;;;;;;;5032418;28;20029;-56
2021/12/16 02:37:36;;;;;;;11.00;7.05;;;;;;;;;;5032723;28;20112;-56
2021/12/16 02:40:06;;;;;;;13.50;6.38;;;;;;;;;;5032528;28;20036;-56
2021/12/16 02:42:40;;;;;;;11.10;7.10;;;;;;;;;;5059697;28;20048;-56
2021/12/16 02:50:19;;;;;;;12.30;7.15;;;;;;;;;;5074723;28;20042;-55
2021/12/16 02:52:44;;;;;;;13.13;6.30;;;;;;;;;;5074360;28;20103;-55
2021/12/16 02:55:11;;;;;;;10.88;7.05;;;;;;;;;;5074471;28;20021;-54
2021/12/16 02:57:44;;;;;;;12.27;7.22;;;;;;;;;;5073817;28;20041;-54
2021/12/16 03:00:13;;;;;;;9.20;6.43;;;;;;;;;;5073940;28;20150;-54
2021/12/16 03:02:38;;;;;;;10.13;6.00;;;;;;;;;;5089654;28;20135;-53
2021/12/16 03:05:04;;;;;;;13.75;7.07;;;;;;;;;;5073918;28;20171;-53
2021/12/16 03:07:29;;;;;;;11.45;7.25;;;;;;;;;;5074146;28;20032;-54
2021/12/16 03:12:50;;;;;;;9.68;6.70;;;;;;;;;;5073949;28;20048;-54
2021/12/16 03:20:54;;;;;;;10.23;6.35;;;;;;;;;;5073237;28;20090;-56
2021/12/16 03:26:23;;;;;;;10.82;6.20;;;;;;;;;;5073761;28;20032;-54
2021/12/16 03:31:45;;;;;;;12.00;7.47;;;;;;;;;;5073871;28;20055;-55
2021/12/16 03:37:13;;;;;;;11.05;6.78;;;;;;;;;;5073180;28;20075;-54
2021/12/16 03:39:40;;;;;;;14.23;7.50;;;;;;;;;;5073254;28;20055;-54
2021/12/16 03:42:05;;;;;;;11.90;7.03;;;;;;;;;;5073378;28;20033;-55
2021/12/16 03:44:48;;;;;;;11.05;6.03;;;;;;;;;;5073281;28;20395;-56
2021/12/16 03:47:14;;;;;;;10.20;6.57;;;;;;;;;;5072993;28;20032;-56
2021/12/16 03:49:39;;;;;;;12.65;6.65;;;;;;;;;;5073364;28;20020;-56
2021/12/16 03:52:06;;;;;;;15.93;7.70;;;;;;;;;;5073225;28;20033;-55
2021/12/16 03:54:38;;;;;;;10.95;6.30;;;;;;;;;;5073282;28;20029;-55
2021/12/16 03:57:05;;;;;;;12.85;6.90;;;;;;;;;;5072923;28;20162;-56
2021/12/16 03:59:33;;;;;;;13.40;7.28;;;;;;;;;;5072911;28;20029;-56
2021/12/16 04:01:59;;;;;;;11.00;6.28;;;;;;;;;;5073091;28;20032;-54
2021/12/16 04:04:25;;;;;;;10.45;6.28;;;;;;;;;;5073073;28;20082;-54
2021/12/16 04:06:50;;;;;;;12.43;7.18;;;;;;;;;;5072993;28;20067;-54
2021/12/16 04:09:16;;;;;;;14.70;6.63;;;;;;;;;;5073045;28;20094;-55
2021/12/16 04:11:44;;;;;;;8.88;5.80;;;;;;;;;;5072836;28;20040;-55
2021/12/16 04:14:10;;;;;;;11.82;7.28;;;;;;;;;;5072994;28;20040;-56
2021/12/16 04:16:38;;;;;;;11.80;6.45;;;;;;;;;;5088766;28;20128;-54
2021/12/16 04:19:09;;;;;;;12.30;6.05;;;;;;;;;;5072410;28;20031;-55
2021/12/16 04:21:35;;;;;;;12.27;6.63;;;;;;;;;;5071160;28;20041;-55
2021/12/16 04:24:00;;;;;;;8.38;5.85;;;;;;;;;;5072740;28;20113;-55
2021/12/16 04:26:27;;;;;;;10.57;6.35;;;;;;;;;;5072499;28;20576;-55
2021/12/16 04:28:52;;;;;;;9.32;6.00;;;;;;;;;;5072339;28;20079;-55
2021/12/16 04:31:18;;;;;;;11.02;6.22;;;;;;;;;;5072104;28;20376;-57
2021/12/16 04:33:44;;;;;;;10.30;6.28;;;;;;;;;;5072735;28;20039;-54
2021/12/16 04:36:10;;;;;;;11.45;6.40;;;;;;;;;;5066079;28;20519;-54
2021/12/16 04:38:36;;;;;;;8.88;6.38;;;;;;;;;;5052423;28;20515;-54
2021/12/16 04:41:02;;;;;;;10.80;6.25;;;;;;;;;;5052573;28;20032;-55
2021/12/16 04:43:38;;;;;;;12.65;6.97;;;;;;;;;;5052928;28;20044;-55
2021/12/16 04:46:04;;;;;;;9.30;5.93;;;;;;;;;;5052649;28;20040;-55
2021/12/16 04:48:29;;;;;;;7.35;5.53;;;;;;;;;;5052277;28;20037;-55
2021/12/16 04:50:56;;;;;;;9.10;5.95;;;;;;;;;;5052290;28;20513;-54
2021/12/16 04:53:21;;;;;;;10.55;6.50;;;;;;;;;;5052586;28;20029;-55
2021/12/16 04:55:46;;;;;;;9.13;5.63;;;;;;;;;;5052441;28;20116;-54
2021/12/16 04:58:12;;;;;;;12.05;5.82;;;;;;;;;;5052706;28;20025;-55
2021/12/16 05:00:37;;;;;;;8.43;5.72;;;;;;;;;;5050682;28;20029;-55
2021/12/16 05:03:02;;;;;;;11.25;5.88;;;;;;;;;;5082295;28;20032;-56
2021/12/16 05:05:27;;;;;;;9.85;6.65;;;;;;;;;;5077334;28;20044;-55
2021/12/16 05:07:53;;;;;;;9.02;6.18;;;;;;;;;;5071859;28;20028;-54
2021/12/16 05:10:19;;;;;;;10.30;6.25;;;;;;;;;;5088698;28;20470;-55
2021/12/16 05:12:46;;;;;;;12.45;6.57;;;;;;;;;;5092084;28;20450;-55
2021/12/16 05:15:15;;;;;;;9.40;6.07;;;;;;;;;;5090341;28;20115;-55
2021/12/16 05:17:46;;;;;;;9.05;5.32;;;;;;;;;;5072538;28;20039;-55
2021/12/16 05:20:14;;;;;;;10.02;5.50;;;;;;;;;;5071343;28;20044;-55
2021/12/16 05:28:04;;;;;;;8.40;5.57;;;;;;;;;;5071860;28;20037;-55
2021/12/16 05:30:30;;;;;;;7.20;5.00;;;;;;;;;;5071834;28;20036;-55
2021/12/16 05:32:55;;;;;;;8.80;5.88;;;;;;;;;;5071736;28;20033;-55
2021/12/16 05:35:22;;;;;;;9.57;5.28;;;;;;;;;;5072052;28;20083;-54
2021/12/16 05:37:47;;;;;;;8.07;5.22;;;;;;;;;;5071979;28;20078;-54
2021/12/16 05:40:14;;;;;;;8.30;5.43;;;;;;;;;;5072534;28;20024;-55
2021/12/16 05:42:40;;;;;;;9.52;5.50;;;;;;;;;;5072420;28;20037;-55
2021/12/16 05:45:07;;;;;;;7.53;5.47;;;;;;;;;;5075972;28;20044;-55
2021/12/16 05:47:32;;;;;;;10.32;4.93;;;;;;;;;;5075295;28;20041;-55
2021/12/16 05:49:58;;;;;;;8.38;5.22;;;;;;;;;;5075257;28;20028;-53
2021/12/16 05:52:23;;;;;;;11.57;5.43;;;;;;;;;;5080775;28;20012;-57
2021/12/16 05:54:48;;;;;;;8.65;5.10;;;;;;;;;;5084789;28;20116;-56
2021/12/16 05:57:13;;;;;;;9.82;6.05;;;;;;;;;;5085783;28;20032;-56
2021/12/16 05:59:38;;;;;;;8.35;5.50;;;;;;;;;;5085343;28;20118;-55
2021/12/16 06:02:04;;;;;;;8.10;4.55;;;;;;;;;;5084301;28;20028;-54
2021/12/16 06:04:29;;;;;;;7.10;4.53;;;;;;;;;;5086884;28;20033;-55
2021/12/16 06:06:54;;;;;;;9.52;5.32;;;;;;;;;;5085634;28;20115;-53
2021/12/16 06:09:20;;;;;;;7.32;4.63;;;;;;;;;;5083393;28;20093;-57
2021/12/16 06:11:47;;;;;;;8.48;5.22;;;;;;;;;;5084396;28;20500;-59
2021/12/16 06:14:20;;;;;;;8.02;4.15;;;;;;;;;;5084627;28;20106;-56
2021/12/16 06:27:50;;;;;;;7.10;3.40;;;;;;;;;;5085038;28;20027;-55
2021/12/16 06:30:18;;;;;;;5.35;3.20;;;;;;;;;;5083551;28;20135;-54
2021/12/16 06:32:43;;;;;;;5.85;3.00;;;;;;;;;;5081610;28;20043;-56
2021/12/16 06:35:09;;;;;;;8.20;4.35;;;;;;;;;;5077316;28;20029;-53
2021/12/16 06:37:35;;;;;;;7.13;3.65;;;;;;;;;;5075056;28;20028;-53
2021/12/16 06:40:00;;;;;;;5.68;3.50;;;;;;;;;;5074908;28;20029;-54
2021/12/16 06:42:27;;;;;;;7.55;3.50;;;;;;;;;;5074454;28;20127;-53
2021/12/16 06:44:57;;;;;;;6.10;3.30;;;;;;;;;;5074499;28;20098;-53
2021/12/16 06:47:30;;;;;;;;;;;;;;;;;;5074966;28;20036;-54
2021/12/16 06:49:56;;;;;;;10.27;4.68;;;;;;;;;;5074050;28;19939;-55
2021/12/16 06:52:27;;;;;;;5.60;3.08;;;;;;;;;;5075790;28;20592;-57
2021/12/16 06:55:08;;;;;;;5.47;2.97;;;;;;;;;;5073336;28;20485;-53
2021/12/16 06:57:49;;;;;;;;;;;;;;;;;;5078220;28;20032;-57
2021/12/16 07:00:21;;;;;;;6.38;2.75;;;;;;;;;;5074767;28;20952;-58
2021/12/16 07:05:34;;;;;;;7.30;3.35;;;;;;;;;;5078992;28;20122;-56
2021/12/16 07:07:59;;;;;;;5.63;3.28;;;;;;;;;;5083799;28;20536;-56
2021/12/16 07:10:26;;;;;;;5.70;3.25;;;;;;;;;;5083224;28;20107;-57
2021/12/16 07:12:53;;;;;;;5.63;4.05;;;;;;;;;;5086462;28;20032;-57
2021/12/16 07:15:22;;;;;;;6.07;3.47;;;;;;;;;;5083488;28;20032;-57
2021/12/16 07:17:48;;;;;;;6.22;3.28;;;;;;;;;;5081748;28;20025;-55
2021/12/16 07:20:14;;;;;;;9.70;2.83;;;;;;;;;;5081637;28;20506;-55
2021/12/16 07:22:40;;;;;;;7.45;3.25;;;;;;;;;;5074058;28;20040;-55
2021/12/16 07:25:06;;;;;;;5.18;3.50;;;;;;;;;;5073994;28;20028;-55
2021/12/16 07:27:33;;;;;;;14.18;4.07;;;;;;;;;;5080006;28;20039;-57
2021/12/16 07:29:58;;;;;;;7.05;3.55;;;;;;;;;;5090943;28;20051;-56
2021/12/16 07:32:23;;;;;;;7.35;3.33;;;;;;;;;;5093655;28;20024;-56
2021/12/16 07:34:49;;;;;;;4.63;2.73;;;;;;;;;;5088333;28;20020;-56
2021/12/16 07:37:14;;;;;;;5.10;3.22;;;;;;;;;;5084676;28;20436;-56
2021/12/16 07:39:41;;;;;;;5.25;3.67;;;;;;;;;;5073054;28;20033;-57
2021/12/16 07:42:08;;;;;;;9.65;4.20;;;;;;;;;;5072850;28;20123;-56
2021/12/16 07:44:34;;;;;;;5.88;4.40;;;;;;;;;;5072658;28;20556;-56
2021/12/16 07:47:02;;;;;;;5.82;3.80;;;;;;;;;;5072800;28;20108;-56
2021/12/16 07:49:30;;;;;;;7.30;3.70;;;;;;;;;;5073180;28;20393;-56
2021/12/16 07:51:57;;;;;;;5.40;3.58;;;;;;;;;;5072430;28;20040;-56
2021/12/16 07:54:22;;;;;;;5.30;3.50;;;;;;;;;;5088811;28;20036;-56
2021/12/16 07:56:49;;;;;;;6.60;4.32;;;;;;;;;;5090889;28;20093;-56
2021/12/16 07:59:14;;;;;;;5.25;4.20;;;;;;;;;;5093371;28;20028;-57
2021/12/16 08:01:40;;;;;;;7.32;4.40;;;;;;;;;;5088742;28;20032;-56
2021/12/16 08:04:06;;;;;;;6.55;4.05;;;;;;;;;;5072954;28;20116;-56
2021/12/16 08:06:32;;;;;;;9.02;3.92;;;;;;;;;;5072745;28;20033;-57
2021/12/16 08:09:03;;;;;;;6.63;3.70;;;;;;;;;;5081043;28;20021;-55
2021/12/16 08:11:30;;;;;;;5.78;3.88;;;;;;;;;;5073168;28;20115;-57
2021/12/16 08:13:55;;;;;;;6.80;4.32;;;;;;;;;;5065738;28;20483;-57
2021/12/16 08:16:22;;;;;;;5.85;4.13;;;;;;;;;;5075720;28;20040;-56
2021/12/16 08:18:52;;;;;;;11.27;5.22;;;;;;;;;;5076385;28;20036;-56
2021/12/16 08:21:17;;;;;;;6.00;4.38;;;;;;;;;;5068564;28;20044;-56
2021/12/16 08:23:44;;;;;;;7.97;3.95;;;;;;;;;;5071437;28;20158;-56
2021/12/16 08:26:09;;;;;;;7.00;4.10;;;;;;;;;;5070910;28;20037;-56
2021/12/16 08:28:35;;;;;;;4.97;4.10;;;;;;;;;;5071120;28;20017;-57
2021/12/16 08:31:00;;;;;;;5.50;3.67;;;;;;;;;;5076506;28;20500;-57
2021/12/16 08:33:25;;;;;;;5.53;3.75;;;;;;;;;;5075615;28;20041;-57
2021/12/16 08:35:52;;;;;;;5.75;3.28;;;;;;;;;;5071439;28;20074;-57
2021/12/16 08:38:20;;;;;;;5.53;3.67;;;;;;;;;;5070697;28;20445;-57
2021/12/16 08:40:47;;;;;;;5.00;3.40;;;;;;;;;;5070416;28;20479;-57
2021/12/16 08:43:13;;;;;;;4.90;3.45;;;;;;;;;;5071062;28;20125;-57
2021/12/16 08:45:40;;;;;;;6.13;3.53;;;;;;;;;;5070463;28;20492;-57
2021/12/16 08:48:05;;;;;;;6.97;3.88;;;;;;;;;;5070082;28;20052;-57
2021/12/16 08:50:32;;;;;;;9.48;4.05;;;;;;;;;;5070609;28;20071;-57
2021/12/16 08:52:59;;;;;;;4.55;3.38;;;;;;;;;;5070645;28;20467;-57
2021/12/16 08:55:25;;;;;;;6.38;3.55;;;;;;;;;;5070967;28;20112;-57
2021/12/16 08:57:52;;;;;;;4.80;2.80;;;;;;;;;;5070886;28;20115;-59
2021/12/16 09:00:21;;;;;;;7.43;3.70;;;;;;;;;;5070193;28;20029;-57
2021/12/16 09:02:46;;;;;;;6.43;3.67;;;;;;;;;;5078829;28;20093;-55
2021/12/16 09:05:11;;;;;;;6.13;3.35;;;;;;;;;;5072251;28;20040;-57
2021/12/16 09:07:37;;;;;;;5.38;3.30;;;;;;;;;;5073373;28;20526;-57
2021/12/16 09:10:04;;;;;;;6.55;3.83;;;;;;;;;;5071868;28;20560;-56
2021/12/16 09:15:03;;;;;;;9.23;3.78;;;;;;;;;;5070293;28;20135;-56
2021/12/16 09:17:28;;;;;;;5.43;3.38;;;;;;;;;;5069972;28;20107;-57
2021/12/16 09:19:55;;;;;;;8.02;3.55;;;;;;;;;;5074423;28;20193;-56
2021/12/16 09:22:21;;;;;;;4.70;2.85;;;;;;;;;;5094674;28;20411;-58
2021/12/16 09:24:47;;;;;;;7.53;3.25;;;;;;;;;;5081538;28;20051;-55
2021/12/16 09:27:12;;;;;;;4.40;2.95;;;;;;;;;;5074939;28;20046;-56
2021/12/16 09:29:38;;;;;;;4.93;3.15;;;;;;;;;;5073794;28;20037;-56
2021/12/16 09:32:04;;;;;;;12.38;4.25;;;;;;;;;;5073257;28;20058;-57
2021/12/16 09:34:30;;;;;;;5.60;3.75;;;;;;;;;;5079995;28;20106;-57
2021/12/16 09:36:55;;;;;;;5.60;4.05;;;;;;;;;;5073527;28;20138;-57
2021/12/16 09:39:24;;;;;;;13.25;4.50;;;;;;;;;;5073677;28;20036;-57
2021/12/16 09:41:50;;;;;;;7.00;3.95;;;;;;;;;;5073792;28;20098;-57
2021/12/16 09:44:16;;;;;;;4.95;3.65;;;;;;;;;;5073066;28;20041;-56
2021/12/16 09:46:44;;;;;;;6.93;4.47;;;;;;;;;;5073611;28;20041;-56
2021/12/16 09:49:10;;;;;;;8.07;5.40;;;;;;;;;;5073978;28;20119;-57
2021/12/16 09:51:36;;;;;;;15.90;5.90;;;;;;;;;;5073203;28;20450;-57
2021/12/16 09:54:06;;;;;;;7.78;5.38;;;;;;;;;;5122173;27;20028;-57
2021/12/16 09:56:32;;;;;;;12.55;6.18;;;;;;;;;;5069528;28;20481;-57
2021/12/16 09:58:59;;;;;;;7.68;4.72;;;;;;;;;;5073170;28;20040;-57
2021/12/16 10:01:25;;;;;;;7.97;4.90;;;;;;;;;;5079563;28;20024;-57
2021/12/16 10:03:51;;;;;;;7.88;5.28;;;;;;;;;;5073461;28;20036;-57
2021/12/16 10:06:17;;;;;;;5.18;4.10;;;;;;;;;;5073359;28;20790;-57
2021/12/16 10:08:42;;;;;;;6.57;4.70;;;;;;;;;;5085066;28;20024;-57
2021/12/16 10:11:08;;;;;;;5.10;4.07;;;;;;;;;;5078564;28;20025;-56
2021/12/16 10:18:32;;;;;;;9.05;4.65;;;;;;;;;;5073203;28;20037;-57
2021/12/16 10:20:59;;;;;;;7.63;4.50;;;;;;;;;;5080558;28;20116;-57
2021/12/16 10:23:26;;;;;;;7.03;4.53;;;;;;;;;;5072593;28;20532;-57
2021/12/16 10:25:53;;;;;;;7.32;4.43;;;;;;;;;;5070660;28;20040;-57
2021/12/16 10:28:24;;;;;;;6.45;4.22;;;;;;;;;;5070959;28;20028;-57
2021/12/16 10:30:57;;;;;;;5.65;4.47;;;;;;;;;;5070293;28;20797;-57
2021/12/16 10:33:28;;;;;;;6.97;4.13;;;;;;;;;;5069364;28;20040;-56
2021/12/16 10:35:59;;;;;;;7.53;5.35;;;;;;;;;;5070127;28;20508;-57
2021/12/16 10:38:25;;;;;;;8.13;4.28;;;;;;;;;;5071495;28;20111;-57
2021/12/16 10:40:52;;;;;;;6.00;3.90;;;;;;;;;;5072724;28;20024;-57
2021/12/16 10:43:35;;;;;;;13.13;4.40;;;;;;;;;;5072540;28;20041;-57
2021/12/16 10:46:04;;;;;;;5.93;3.97;;;;;;;;;;5084485;28;20028;-57
2021/12/16 10:48:30;;;;;;;6.88;4.40;;;;;;;;;;5092770;28;20085;-57
2021/12/16 10:51:05;;;;;;;5.25;3.63;;;;;;;;;;5090519;28;20456;-57
2021/12/16 10:53:50;;;;;;;10.00;4.45;;;;;;;;;;5076920;28;20032;-57
2021/12/16 10:56:18;;;;;;;5.00;3.60;;;;;;;;;;5029437;28;20133;-57
2021/12/16 10:58:46;;;;;;;12.05;3.95;;;;;;;;;;5029654;28;20045;-56
2021/12/16 11:01:30;;;;;;;5.20;3.38;;;;;;;;;;5030401;28;20052;-57
2021/12/16 11:03:55;;;;;;;6.35;3.85;;;;;;;;;;5029890;28;20025;-56
2021/12/16 11:06:28;;;;;;;6.95;4.25;;;;;;;;;;5029354;28;20463;-56
2021/12/16 11:08:53;;;;;;;4.78;3.65;;;;;;;;;;5029906;28;20030;-57
2021/12/16 11:11:29;;;;;;;4.97;3.10;;;;;;;;;;5029508;28;20493;-56
2021/12/16 11:14:04;;;;;;;4.90;3.70;;;;;;;;;;5027712;28;20026;-57
2021/12/16 11:16:31;;;;;;;5.35;2.90;;;;;;;;;;5029501;28;20037;-57
2021/12/16 11:18:56;;;;;;;3.90;3.17;;;;;;;;;;5028765;28;20491;-57
2021/12/16 11:21:21;;;;;;;6.35;3.78;;;;;;;;;;5028819;28;20137;-57
2021/12/16 11:23:50;;;;;;;8.60;4.43;;;;;;;;;;5030094;28;20017;-58
2021/12/16 11:26:17;;;;;;;6.57;3.85;;;;;;;;;;5028736;28;20037;-56
2021/12/16 11:28:44;;;;;;;5.97;3.60;;;;;;;;;;5028951;28;20057;-56
2021/12/16 11:31:11;;;;;;;5.13;3.15;;;;;;;;;;5029330;28;20048;-56
2021/12/16 11:33:39;;;;;;;5.60;3.63;;;;;;;;;;5058958;28;20674;-57
2021/12/16 11:36:07;;;;;;;5.18;3.42;;;;;;;;;;5082447;28;20082;-57
2021/12/16 11:38:34;;;;;;;7.05;3.40;;;;;;;;;;5087667;28;20020;-56
2021/12/16 11:41:05;;;;;;;5.13;3.65;;;;;;;;;;5082462;28;20029;-57
2021/12/16 11:43:35;;;;;;;5.97;3.95;;;;;;;;;;5079149;28;20448;-57
2021/12/16 11:46:01;;;;;;;5.65;4.03;;;;;;;;;;5080557;28;20035;-57
2021/12/16 11:48:28;;;;;;;5.57;3.35;;;;;;;;;;5077034;28;20101;-58
2021/12/16 11:51:01;;;;;;;5.65;3.83;;;;;;;;;;5076436;28;20024;-56
2021/12/16 11:53:34;;;;;;;5.47;3.83;;;;;;;;;;5079730;28;20153;-57
2021/12/16 11:55:59;;;;;;;5.13;3.50;;;;;;;;;;5076572;28;20055;-57
2021/12/16 11:58:28;;;;;;;4.63;3.45;;;;;;;;;;5071412;28;20040;-56
2021/12/16 12:00:54;;;;;;;5.65;3.42;;;;;;;;;;5070905;28;20067;-57
2021/12/16 12:03:19;;;;;;;9.10;3.67;;;;;;;;;;5070796;28;20060;-57
2021/12/16 12:05:46;;;;;;;5.60;3.50;;;;;;;;;;5071003;28;20464;-57
2021/12/16 12:08:28;;;;;;;6.78;3.80;;;;;;;;;;5084301;28;20024;-57
2021/12/16 12:11:00;;;;;;;6.82;3.97;;;;;;;;;;5072045;28;20040;-57
2021/12/16 12:13:30;;;;;;;8.68;3.42;;;;;;;;;;5077437;28;20020;-57
2021/12/16 12:16:14;;;;;;;6.95;3.53;;;;;;;;;;5071221;28;20105;-57
2021/12/16 12:18:39;;;;;;;6.07;3.40;;;;;;;;;;5070528;28;20518;-58
2021/12/16 12:21:15;;;;;;;7.10;4.07;;;;;;;;;;5071342;28;20024;-57
2021/12/16 12:23:40;;;;;;;4.35;3.20;;;;;;;;;;5070478;28;20037;-57
2021/12/16 12:26:06;;;;;;;6.35;3.78;;;;;;;;;;5071908;28;20028;-58
2021/12/16 12:28:31;;;;;;;5.07;3.50;;;;;;;;;;5071123;28;20472;-57
2021/12/16 12:30:56;;;;;;;8.25;3.95;;;;;;;;;;5090373;28;20043;-57
2021/12/16 12:33:21;;;;;;;6.03;3.33;;;;;;;;;;5077257;28;20070;-57
2021/12/16 12:35:47;;;;;;;6.82;3.35;;;;;;;;;;5071067;28;20036;-57
2021/12/16 12:38:12;;;;;;;8.23;4.55;;;;;;;;;;5072598;28;20082;-57
2021/12/16 12:40:39;;;;;;;4.72;3.35;;;;;;;;;;5086131;28;20036;-57
2021/12/16 12:43:05;;;;;;;6.40;3.83;;;;;;;;;;5102572;28;20497;-57
2021/12/16 12:45:34;;;;;;;5.45;3.33;;;;;;;;;;5070324;28;20400;-57
2021/12/16 12:48:03;;;;;;;7.40;3.50;;;;;;;;;;5068813;28;20063;-57
2021/12/16 12:50:30;;;;;;;5.82;4.03;;;;;;;;;;5091196;28;20539;-57
2021/12/16 12:52:59;;;;;;;9.13;3.95;;;;;;;;;;5091746;28;20054;-57
2021/12/16 12:55:26;;;;;;;7.28;3.40;;;;;;;;;;5095551;28;20391;-57
2021/12/16 12:57:59;;;;;;;5.20;3.13;;;;;;;;;;5095120;28;20036;-57
2021/12/16 13:00:30;;;;;;;9.00;4.53;;;;;;;;;;5095329;28;20036;-57
2021/12/16 13:03:00;;;;;;;6.07;3.75;;;;;;;;;;5094652;28;20070;-57
2021/12/16 13:05:25;;;;;;;4.63;3.42;;;;;;;;;;5080226;28;20028;-57
2021/12/16 13:08:00;;;;;;;6.20;3.72;;;;;;;;;;5074887;28;20166;-57
2021/12/16 13:10:30;;;;;;;6.28;3.72;;;;;;;;;;5075573;28;20032;-57
2021/12/16 13:13:15;;;;;;;6.32;3.50;;;;;;;;;;5076107;28;20027;-57
2021/12/16 13:23:38;;;;;;;5.55;4.10;;;;;;;;;;5073807;28;20396;-57
2021/12/16 13:29:03;;;;;;;6.93;4.68;;;;;;;;;;5073956;28;20512;-57
2021/12/16 13:31:51;;;;;;;6.65;3.97;;;;;;;;;;5081365;28;20044;-57
2021/12/16 13:34:29;;;;;;;9.57;4.60;;;;;;;;;;5080116;28;20547;-58
2021/12/16 13:36:57;;;;;;;6.65;4.63;;;;;;;;;;5079398;28;20484;-57
2021/12/16 13:39:25;;;;;;;5.57;3.80;;;;;;;;;;5082401;28;20035;-58
2021/12/16 13:41:55;;;;;;;5.75;4.15;;;;;;;;;;5081256;28;20063;-58
2021/12/16 13:44:35;;;;;;;6.15;4.32;;;;;;;;;;5078382;28;20040;-57
2021/12/16 13:47:08;;;;;;;8.88;4.63;;;;;;;;;;5081209;28;20033;-58
2021/12/16 14:06:31;;;;;;;5.07;3.60;;;;;;;;;;5049310;28;20045;-58
2021/12/16 14:09:10;;;;;;;7.38;4.30;;;;;;;;;;5050796;28;20524;-58
2021/12/16 14:17:49;;;;;;;5.40;3.67;;;;;;;;;;5050964;28;20109;-57
2021/12/16 14:26:05;;;;;;;7.15;4.10;;;;;;;;;;5050004;28;20028;-57
2021/12/16 14:42:25;;;;;;;7.47;3.80;;;;;;;;;;5028235;28;20079;-57
2021/12/16 14:50:53;;;;;;;8.82;5.13;;;;;;;;;;4963603;28;20451;-57
2021/12/16 14:53:25;;;;;;;8.07;5.10;;;;;;;;;;4961730;28;20365;-56
2021/12/16 14:55:52;;;;;;;13.50;5.43;;;;;;;;;;4932231;28;20083;-56
2021/12/16 14:58:22;;;;;;;8.13;4.40;;;;;;;;;;4951277;28;20058;-57
2021/12/16 15:00:52;;;;;;;7.15;4.75;;;;;;;;;;4955607;28;20038;-57
2021/12/16 15:03:20;;;;;;;6.03;4.18;;;;;;;;;;4961910;28;20039;-57
2021/12/16 15:05:48;;;;;;;7.45;4.45;;;;;;;;;;4960676;28;20070;-57
2021/12/16 15:08:27;;;;;;;11.00;4.35;;;;;;;;;;4964669;28;20782;-57
2021/12/16 15:10:53;;;;;;;7.55;4.28;;;;;;;;;;4961221;28;20109;-57
2021/12/16 15:13:29;;;;;;;5.65;4.10;;;;;;;;;;4960819;28;20027;-53
2021/12/16 15:43:13;;;;;;;6.35;4.80;;;;;;;;;;4960594;28;20565;-53
2021/12/16 15:45:41;;;;;;;6.00;3.78;;;;;;;;;;4965596;28;20035;-55
2021/12/16 15:48:11;;;;;;;5.75;4.63;;;;;;;;;;4996500;28;20034;-54
2021/12/16 15:50:36;;;;;;;6.38;4.65;;;;;;;;;;5007001;28;20033;-56
2021/12/16 15:53:03;;;;;;;10.23;4.50;;;;;;;;;;4990912;28;20847;-57
2021/12/16 15:55:34;;;;;;;8.95;4.25;;;;;;;;;;4982659;28;20042;-56
2021/12/16 15:58:11;;;;;;;7.35;4.70;;;;;;;;;;5044491;28;21507;-58
2021/12/16 16:00:38;;;;;;;4.72;3.63;;;;;;;;;;5041952;28;20033;-56
2021/12/16 16:03:05;;;;;;;5.97;4.47;;;;;;;;;;5046005;28;20056;-57
2021/12/16 16:05:35;;;;;;;6.60;4.57;;;;;;;;;;5044643;28;20072;-56
2021/12/16 16:08:02;;;;;;;5.93;4.47;;;;;;;;;;5049367;28;20123;-56
2021/12/16 16:10:27;;;;;;;5.32;3.67;;;;;;;;;;5049889;28;20446;-59
2021/12/16 16:12:53;;;;;;;4.20;3.17;;;;;;;;;;5053579;28;20036;-57
2021/12/16 16:15:22;;;;;;;6.68;4.43;;;;;;;;;;5064247;28;20036;-58
2021/12/16 16:20:33;;;;;;;10.57;5.53;;;;;;;;;;5092557;28;20047;-59
2021/12/16 16:23:06;;;;;;;8.20;4.60;;;;;;;;;;5099931;28;20051;-59
2021/12/16 16:25:31;;;;;;;8.40;5.22;;;;;;;;;;5096606;28;20091;-59
2021/12/16 16:27:58;;;;;;;10.75;5.85;;;;;;;;;;5092416;28;20192;-59
2021/12/16 16:30:24;;;;;;;10.85;5.95;;;;;;;;;;5091686;28;20257;-59
2021/12/16 16:33:03;;;;;;;10.15;5.07;;;;;;;;;;5093582;28;20503;-59
2021/12/16 16:35:29;;;;;;;10.20;5.75;;;;;;;;;;5095513;28;20134;-59
2021/12/16 16:38:05;;;;;;;12.15;6.03;;;;;;;;;;5097634;28;20083;-59
2021/12/16 16:40:35;;;;;;;9.35;6.10;;;;;;;;;;5092819;28;20047;-60
2021/12/16 16:43:02;;;;;;;11.52;6.05;;;;;;;;;;5077802;28;20028;-60
2021/12/16 16:45:30;;;;;;;9.65;5.38;;;;;;;;;;5095802;28;20609;-60
2021/12/16 16:48:05;;;;;;;11.63;5.10;;;;;;;;;;5094039;28;20105;-61
2021/12/16 16:50:31;;;;;;;11.57;4.95;;;;;;;;;;5100381;28;20682;-60
2021/12/16 16:52:57;;;;;;;9.00;4.80;;;;;;;;;;5100942;28;20031;-60
2021/12/16 16:55:28;;;;;;;8.88;5.50;;;;;;;;;;5101634;28;20020;-59
2021/12/16 16:58:14;;;;;;;9.02;5.40;;;;;;;;;;5101038;28;20502;-60
2021/12/16 17:00:41;;;;;;;9.05;5.45;;;;;;;;;;5101900;28;20055;-59
2021/12/16 17:03:09;;;;;;;12.15;6.20;;;;;;;;;;5100969;28;20400;-58
2021/12/16 17:05:38;;;;;;;9.48;6.10;;;;;;;;;;5096915;28;20451;-60
2021/12/16 17:08:09;;;;;;;14.13;6.93;;;;;;;;;;5096676;28;20044;-59
2021/12/16 17:10:38;;;;;;;9.98;6.60;;;;;;;;;;5096747;28;20024;-59
2021/12/16 17:13:23;;;;;;;12.27;7.18;;;;;;;;;;5099771;28;20126;-58
2021/12/16 17:18:20;;;;;;;11.30;7.03;;;;;;;;;;5093755;28;20410;-58
2021/12/16 17:20:45;;;;;;;12.70;8.23;;;;;;;;;;5094496;28;20118;-58
2021/12/16 17:23:13;;;;;;;15.02;7.60;;;;;;;;;;5098962;28;20107;-56
2021/12/16 17:25:39;;;;;;;15.32;7.22;;;;;;;;;;5088574;28;20488;-58
2021/12/16 17:28:05;;;;;;;10.40;7.78;;;;;;;;;;5088409;28;20040;-57
2021/12/16 17:30:32;;;;;;;11.07;7.00;;;;;;;;;;5088438;28;20032;-57
2021/12/16 17:32:58;;;;;;;11.35;7.57;;;;;;;;;;5087289;28;20032;-58
2021/12/16 17:35:29;;;;;;;10.25;6.93;;;;;;;;;;5088259;28;20039;-59
2021/12/16 17:38:03;;;;;;;13.63;7.32;;;;;;;;;;5088588;28;20035;-58
2021/12/16 17:40:28;;;;;;;12.20;7.47;;;;;;;;;;5072721;28;20095;-58
2021/12/16 17:42:55;;;;;;;13.07;7.22;;;;;;;;;;5072495;28;20178;-58
2021/12/16 17:45:20;;;;;;;9.68;5.68;;;;;;;;;;5072982;28;20089;-58
2021/12/16 17:47:47;;;;;;;12.35;6.70;;;;;;;;;;5072249;28;20111;-57
2021/12/16 17:50:14;;;;;;;9.07;6.13;;;;;;;;;;5072629;28;20032;-58
2021/12/16 17:52:39;;;;;;;12.75;7.03;;;;;;;;;;5081876;28;20008;-57
2021/12/16 17:55:08;;;;;;;10.18;5.57;;;;;;;;;;5090367;28;20054;-58
2021/12/16 17:57:35;;;;;;;11.27;6.55;;;;;;;;;;5101783;28;20377;-59
2021/12/16 18:00:03;;;;;;;15.30;7.25;;;;;;;;;;5103833;28;20041;-57
2021/12/16 18:02:29;;;;;;;12.88;5.60;;;;;;;;;;5101788;28;20494;-57
2021/12/16 18:04:56;;;;;;;10.60;6.35;;;;;;;;;;5102695;28;20020;-58
2021/12/16 18:07:22;;;;;;;9.32;6.28;;;;;;;;;;5092737;28;20051;-58
2021/12/16 18:09:47;;;;;;;10.88;5.22;;;;;;;;;;5094717;28;20088;-57
2021/12/16 18:12:15;;;;;;;11.43;5.65;;;;;;;;;;5098979;28;20081;-58
2021/12/16 18:14:47;;;;;;;11.05;5.40;;;;;;;;;;5096837;28;20028;-59
2021/12/16 18:17:14;;;;;;;9.05;5.10;;;;;;;;;;5072086;28;20020;-58
2021/12/16 18:19:41;;;;;;;10.60;5.88;;;;;;;;;;5094658;28;20024;-59
2021/12/16 18:22:08;;;;;;;14.48;5.97;;;;;;;;;;5090437;28;20075;-58
2021/12/16 18:24:33;;;;;;;25.35;7.03;;;;;;;;;;5088175;28;20021;-57
2021/12/16 18:26:59;;;;;;;15.00;7.03;;;;;;;;;;5090230;28;20126;-56
2021/12/16 18:29:24;;;;;;;9.00;5.65;;;;;;;;;;5091124;28;20063;-59
2021/12/16 18:31:49;;;;;;;11.95;6.07;;;;;;;;;;5090561;28;20020;-59
2021/12/16 18:34:20;;;;;;;13.90;6.63;;;;;;;;;;5091314;28;20028;-61
2021/12/16 18:36:47;;;;;;;8.88;5.63;;;;;;;;;;5088674;28;20040;-58
2021/12/16 18:39:12;;;;;;;10.40;5.20;;;;;;;;;;5090590;28;20039;-59
2021/12/16 18:41:47;;;;;;;12.60;6.40;;;;;;;;;;5090921;28;20048;-60
2021/12/16 18:44:20;;;;;;;12.70;6.80;;;;;;;;;;5090380;28;20086;-61
2021/12/16 18:46:46;;;;;;;14.07;6.40;;;;;;;;;;5091733;28;20020;-60
2021/12/16 18:49:23;;;;;;;16.77;6.20;;;;;;;;;;5090801;28;20070;-62